Time;durP1;ratioP1;P1;durP2;ratioP2;P2;SDS_P1;SDS_P2;PMS_P1;PMS_P2;Temp;Humidity;BMP_temperature;BMP_pressure;BME280_temperature;BME280_humidity;BME280_pressure;Samples;Min_cycle;Max_cycle;Signal;HPM_P1;HPM_P2
2021/03/20 00:00:27;;;;;;;8.70;7.00;;;-0.30;99.90;;;;;;4955098;28;20428;-68
2021/03/20 00:02:52;;;;;;;7.27;6.57;;;-0.30;99.90;;;;;;4952861;29;20471;-67
2021/03/20 00:05:19;;;;;;;7.67;6.87;;;-0.30;99.90;;;;;;4949414;28;20447;-68
2021/03/20 00:07:45;;;;;;;10.50;7.50;;;-0.30;99.90;;;;;;4951080;28;20434;-67
2021/03/20 00:10:13;;;;;;;9.30;8.10;;;-0.40;99.90;;;;;;4950601;29;20433;-68
2021/03/20 00:12:40;;;;;;;8.40;7.30;;;-0.40;99.90;;;;;;4949245;29;20986;-67
2021/03/20 00:15:07;;;;;;;16.37;7.10;;;-0.40;99.90;;;;;;4949587;29;20450;-67
2021/03/20 00:17:33;;;;;;;9.50;7.70;;;-0.40;99.90;;;;;;4951547;28;20451;-68
2021/03/20 00:19:59;;;;;;;9.40;7.33;;;-0.40;99.90;;;;;;4938656;29;20440;-68
2021/03/20 00:22:24;;;;;;;10.13;6.40;;;-0.40;99.90;;;;;;4940836;29;20208;-68
2021/03/20 00:24:50;;;;;;;10.73;8.63;;;-0.40;99.90;;;;;;4953995;29;20183;-69
2021/03/20 00:27:15;;;;;;;12.40;6.70;;;-0.40;99.90;;;;;;4955247;29;20189;-68
2021/03/20 00:29:41;;;;;;;8.33;6.13;;;-0.40;99.90;;;;;;4953856;29;20184;-68
2021/03/20 00:32:07;;;;;;;6.97;6.20;;;-0.40;99.90;;;;;;4954750;29;20188;-69
2021/03/20 00:34:32;;;;;;;8.10;6.93;;;-0.40;99.90;;;;;;4954279;29;20177;-68
2021/03/20 00:36:58;;;;;;;7.30;6.20;;;-0.40;99.90;;;;;;4952945;28;20185;-68
2021/03/20 00:39:24;;;;;;;8.80;6.80;;;-0.50;99.90;;;;;;4954637;28;20188;-67
2021/03/20 00:41:49;;;;;;;8.00;6.67;;;-0.50;99.90;;;;;;4945889;29;20223;-68
2021/03/20 00:44:15;;;;;;;9.20;7.20;;;-0.50;99.90;;;;;;4951251;29;20280;-68
2021/03/20 00:46:41;;;;;;;9.87;7.27;;;-0.50;99.90;;;;;;4955975;28;20256;-68
2021/03/20 00:49:06;;;;;;;8.60;7.17;;;-0.50;99.90;;;;;;4954283;28;20169;-68
2021/03/20 00:51:32;;;;;;;7.90;6.73;;;-0.50;99.90;;;;;;4954777;29;20421;-68
2021/03/20 00:53:57;;;;;;;9.60;6.57;;;-0.50;99.90;;;;;;4953695;29;20192;-68
2021/03/20 00:56:23;;;;;;;10.80;6.77;;;-0.60;99.90;;;;;;4954764;29;20177;-69
2021/03/20 00:58:49;;;;;;;7.00;6.30;;;-0.60;99.90;;;;;;4954591;29;20176;-67
2021/03/20 01:01:18;;;;;;;9.20;6.67;;;-0.60;99.90;;;;;;4953377;28;20195;-67
2021/03/20 01:03:45;;;;;;;10.97;8.10;;;-0.60;99.90;;;;;;4950769;29;20208;-68
2021/03/20 01:06:15;;;;;;;14.47;8.60;;;-0.60;99.90;;;;;;4952817;28;20519;-69
2021/03/20 01:08:41;;;;;;;7.23;6.10;;;-0.60;99.90;;;;;;4944787;29;20900;-68
2021/03/20 01:11:09;;;;;;;8.00;6.90;;;-0.50;99.90;;;;;;4938595;28;20524;-68
2021/03/20 01:13:35;;;;;;;9.90;7.53;;;-0.40;99.90;;;;;;4946824;29;20734;-69
2021/03/20 01:16:02;;;;;;;7.90;6.60;;;-0.30;99.90;;;;;;4948660;28;20473;-68
2021/03/20 01:18:27;;;;;;;10.23;6.60;;;-0.30;99.90;;;;;;4953478;29;20181;-68
2021/03/20 01:20:53;;;;;;;11.20;6.00;;;-0.20;99.90;;;;;;4952406;29;20487;-68
2021/03/20 01:23:19;;;;;;;10.33;6.20;;;-0.20;99.90;;;;;;4952055;28;20216;-68
2021/03/20 01:25:45;;;;;;;8.97;7.30;;;-0.10;99.90;;;;;;4947037;29;20837;-68
2021/03/20 01:28:10;;;;;;;12.73;6.90;;;-0.10;99.90;;;;;;4953389;29;20550;-68
2021/03/20 01:30:39;;;;;;;9.40;7.60;;;-0.20;99.90;;;;;;4953427;29;20177;-68
2021/03/20 01:33:05;;;;;;;9.87;6.77;;;-0.20;99.90;;;;;;4946621;28;20204;-67
2021/03/20 01:35:32;;;;;;;10.93;7.40;;;-0.20;99.90;;;;;;4952428;29;20444;-68
2021/03/20 01:37:57;;;;;;;8.60;7.07;;;-0.20;99.90;;;;;;4953607;29;20792;-68
2021/03/20 01:40:27;;;;;;;9.03;7.67;;;-0.10;99.90;;;;;;4953851;29;20519;-68
2021/03/20 01:42:53;;;;;;;7.90;7.10;;;-0.20;99.90;;;;;;4950498;28;20571;-68
2021/03/20 01:45:25;;;;;;;9.30;7.83;;;-0.20;99.90;;;;;;4948758;29;20472;-68
2021/03/20 01:47:58;;;;;;;9.27;7.57;;;-0.20;99.90;;;;;;4953281;29;20490;-68
2021/03/20 01:50:47;;;;;;;9.60;8.20;;;-0.10;99.90;;;;;;4953009;28;20439;-68
2021/03/20 01:53:27;;;;;;;11.10;8.07;;;-0.10;99.90;;;;;;4944290;28;20460;-68
2021/03/20 01:55:53;;;;;;;12.73;8.13;;;0.00;99.90;;;;;;4945631;29;20890;-67
2021/03/20 01:58:18;;;;;;;12.50;8.40;;;0.00;99.90;;;;;;4943657;29;20569;-68
2021/03/20 02:00:45;;;;;;;10.97;7.37;;;0.10;99.90;;;;;;4951506;29;20256;-68
2021/03/20 02:03:18;;;;;;;8.30;6.60;;;0.20;99.90;;;;;;4944921;28;20220;-68
2021/03/20 02:05:44;;;;;;;8.73;7.53;;;0.30;99.90;;;;;;4951514;29;20457;-68
2021/03/20 02:08:12;;;;;;;11.77;9.10;;;0.20;99.90;;;;;;4952997;29;20433;-68
2021/03/20 02:10:41;;;;;;;11.40;9.77;;;0.30;99.90;;;;;;4952350;29;20949;-68
2021/03/20 02:13:19;;;;;;;9.70;7.83;;;0.40;99.90;;;;;;4943221;28;20547;-68
2021/03/20 02:15:55;;;;;;;11.23;6.53;;;0.40;99.90;;;;;;4938405;29;20455;-68
2021/03/20 02:18:35;;;;;;;8.73;6.80;;;0.30;99.90;;;;;;4953270;28;20786;-67
2021/03/20 02:21:13;;;;;;;7.93;6.73;;;0.40;99.90;;;;;;4951156;29;20437;-68
2021/03/20 02:24:07;;;;;;;8.47;6.87;;;0.40;99.90;;;;;;4949073;29;20457;-67
2021/03/20 02:26:50;;;;;;;8.90;6.60;;;0.50;99.90;;;;;;4953174;29;21041;-68
2021/03/20 02:29:40;;;;;;;10.47;7.40;;;0.50;99.90;;;;;;4947722;29;20428;-67
2021/03/20 02:32:37;;;;;;;9.40;7.60;;;0.60;99.90;;;;;;4939671;29;20424;-68
2021/03/20 02:35:14;;;;;;;8.17;7.33;;;0.60;99.90;;;;;;4957084;28;20499;-68
2021/03/20 02:37:52;;;;;;;9.70;7.67;;;0.60;99.90;;;;;;4952399;29;20443;-68
2021/03/20 02:40:25;;;;;;;9.63;7.57;;;0.60;99.90;;;;;;4952087;29;20818;-67
2021/03/20 02:43:00;;;;;;;9.90;8.60;;;0.70;99.90;;;;;;4943600;29;20473;-69
2021/03/20 02:45:41;;;;;;;9.20;7.83;;;0.60;99.90;;;;;;4946612;29;21049;-68
2021/03/20 02:48:12;;;;;;;10.37;8.33;;;0.70;99.90;;;;;;4945195;29;20444;-68
2021/03/20 02:51:00;;;;;;;10.77;9.40;;;0.70;99.90;;;;;;4939975;29;20421;-69
2021/03/20 02:53:32;;;;;;;8.73;7.80;;;0.60;99.90;;;;;;4951938;28;20460;-68
2021/03/20 02:56:00;;;;;;;10.70;7.47;;;0.60;99.90;;;;;;4951826;29;20432;-68
2021/03/20 02:58:42;;;;;;;12.13;7.30;;;0.60;99.90;;;;;;4951963;29;20428;-68
2021/03/20 03:01:11;;;;;;;9.43;7.50;;;0.60;99.90;;;;;;4941138;29;20432;-69
2021/03/20 03:03:42;;;;;;;11.63;8.53;;;0.70;99.90;;;;;;4942866;29;20448;-68
2021/03/20 03:06:20;;;;;;;9.87;7.87;;;0.70;99.90;;;;;;4952132;28;20496;-68
2021/03/20 03:09:12;;;;;;;9.73;7.90;;;0.70;99.90;;;;;;4942905;29;20432;-68
2021/03/20 03:11:47;;;;;;;8.77;7.00;;;0.80;99.90;;;;;;4946893;29;20950;-68
2021/03/20 03:14:28;;;;;;;12.20;8.87;;;0.80;99.90;;;;;;4950106;29;20964;-68
2021/03/20 03:16:59;;;;;;;11.83;9.00;;;0.80;99.90;;;;;;4940581;29;20447;-68
2021/03/20 03:19:39;;;;;;;8.53;7.67;;;0.70;99.90;;;;;;4951846;29;20471;-68
2021/03/20 03:22:11;;;;;;;13.00;8.30;;;0.80;99.90;;;;;;4951645;28;20460;-67
2021/03/20 03:24:39;;;;;;;12.70;8.57;;;0.90;99.90;;;;;;4952604;28;20436;-68
2021/03/20 03:27:08;;;;;;;10.77;8.43;;;0.90;99.90;;;;;;4945383;29;20456;-66
2021/03/20 03:29:35;;;;;;;12.03;9.40;;;0.90;99.90;;;;;;4952688;29;20810;-66
2021/03/20 03:32:10;;;;;;;8.73;7.83;;;0.90;99.90;;;;;;4937080;29;20437;-66
2021/03/20 03:34:42;;;;;;;11.87;8.47;;;0.90;99.90;;;;;;4952443;29;20436;-66
2021/03/20 03:37:13;;;;;;;11.67;8.40;;;0.90;99.90;;;;;;4955357;28;20432;-66
2021/03/20 03:39:43;;;;;;;11.53;7.80;;;0.90;99.90;;;;;;4940764;29;20447;-69
2021/03/20 03:42:11;;;;;;;11.83;9.33;;;0.90;99.90;;;;;;4954725;29;20472;-66
2021/03/20 03:44:37;;;;;;;8.60;7.80;;;0.90;99.90;;;;;;4955567;28;20588;-67
2021/03/20 03:47:03;;;;;;;12.17;8.83;;;0.90;99.90;;;;;;4941694;29;20429;-66
2021/03/20 03:49:29;;;;;;;12.37;8.67;;;0.90;99.90;;;;;;4952384;29;20563;-66
2021/03/20 03:51:54;;;;;;;9.37;7.70;;;0.90;99.90;;;;;;4955664;29;20432;-67
2021/03/20 03:54:20;;;;;;;12.17;9.53;;;0.90;99.90;;;;;;4949907;29;20216;-67
2021/03/20 03:57:20;;;;;;;10.60;8.83;;;0.90;99.90;;;;;;4949170;29;20280;-66
2021/03/20 03:59:59;;;;;;;13.43;9.07;;;0.90;99.90;;;;;;4936759;29;20533;-69
2021/03/20 04:02:46;;;;;;;10.50;9.37;;;0.90;99.90;;;;;;4942870;29;20468;-67
2021/03/20 04:05:18;;;;;;;11.07;9.90;;;1.00;99.90;;;;;;4953318;29;20428;-69
2021/03/20 04:08:20;;;;;;;12.53;10.40;;;0.90;99.90;;;;;;4955441;28;20439;-69
2021/03/20 04:10:52;;;;;;;14.07;9.40;;;0.90;99.90;;;;;;4954863;28;20474;-68
2021/03/20 04:13:51;;;;;;;13.93;9.27;;;0.80;99.90;;;;;;4954408;28;20625;-69
2021/03/20 04:16:20;;;;;;;13.00;8.93;;;0.70;99.90;;;;;;4953527;29;20483;-69
2021/03/20 04:18:57;;;;;;;15.37;10.17;;;0.80;99.90;;;;;;4955001;28;20440;-69
2021/03/20 04:21:29;;;;;;;13.43;10.70;;;0.80;99.90;;;;;;4954005;29;20428;-69
2021/03/20 04:24:18;;;;;;;14.20;10.13;;;0.80;99.90;;;;;;4942527;28;20818;-68
2021/03/20 04:26:55;;;;;;;10.70;8.73;;;0.80;99.90;;;;;;4954863;29;20443;-69
2021/03/20 04:29:23;;;;;;;12.03;8.97;;;0.90;99.90;;;;;;4954537;29;20432;-69
2021/03/20 04:32:14;;;;;;;11.63;10.13;;;0.80;99.90;;;;;;4939254;28;20464;-68
2021/03/20 04:34:54;;;;;;;10.10;8.97;;;0.90;99.90;;;;;;4932401;29;20497;-69
2021/03/20 04:37:23;;;;;;;11.17;8.90;;;0.80;99.90;;;;;;4944629;29;20460;-69
2021/03/20 04:39:51;;;;;;;9.97;8.90;;;0.80;99.90;;;;;;4954498;29;20429;-68
2021/03/20 04:42:24;;;;;;;12.50;10.80;;;0.80;99.90;;;;;;4953942;28;20572;-69
2021/03/20 04:44:50;;;;;;;11.20;8.80;;;0.70;99.90;;;;;;4937570;29;20433;-69
2021/03/20 04:47:22;;;;;;;10.50;8.60;;;0.70;99.90;;;;;;4944093;29;21249;-69
2021/03/20 04:50:14;;;;;;;11.97;9.97;;;0.60;99.90;;;;;;4946541;29;20178;-69
2021/03/20 04:52:43;;;;;;;11.50;9.97;;;0.50;99.90;;;;;;4947707;29;20456;-69
2021/03/20 04:55:11;;;;;;;11.97;9.80;;;0.50;99.90;;;;;;4944689;29;20459;-69
2021/03/20 04:57:44;;;;;;;13.73;9.97;;;0.50;99.90;;;;;;4954347;28;20527;-69
2021/03/20 05:00:24;;;;;;;15.20;10.50;;;0.50;99.90;;;;;;4953386;29;20519;-69
2021/03/20 05:03:17;;;;;;;11.07;9.57;;;0.40;99.90;;;;;;4953375;28;20554;-69
2021/03/20 05:05:51;;;;;;;11.37;9.50;;;0.50;99.90;;;;;;4945499;29;20976;-69
2021/03/20 05:08:25;;;;;;;12.97;10.53;;;0.40;99.90;;;;;;4954461;29;20447;-69
2021/03/20 05:10:56;;;;;;;10.70;9.60;;;0.50;99.90;;;;;;4949211;28;20429;-69
2021/03/20 05:13:46;;;;;;;11.23;10.10;;;0.50;99.90;;;;;;4953411;29;20471;-69
2021/03/20 05:16:17;;;;;;;10.83;9.07;;;0.50;99.90;;;;;;4947134;29;20473;-69
2021/03/20 05:18:48;;;;;;;11.10;8.17;;;0.50;99.90;;;;;;4948690;29;20512;-69
2021/03/20 05:21:20;;;;;;;12.87;10.00;;;0.50;99.90;;;;;;4953621;29;20439;-68
2021/03/20 05:23:46;;;;;;;12.40;9.97;;;0.50;99.90;;;;;;4936012;29;20457;-69
2021/03/20 05:26:13;;;;;;;11.17;9.90;;;0.40;99.90;;;;;;4947535;29;20433;-68
2021/03/20 05:28:39;;;;;;;11.10;8.77;;;0.40;99.90;;;;;;4954208;29;20807;-67
2021/03/20 05:31:05;;;;;;;11.17;9.23;;;0.40;99.90;;;;;;4952539;29;20985;-68
2021/03/20 05:33:32;;;;;;;12.40;9.13;;;0.40;99.90;;;;;;4952293;28;20457;-69
2021/03/20 05:35:58;;;;;;;11.73;10.40;;;0.30;99.90;;;;;;4953660;28;20428;-69
2021/03/20 05:38:24;;;;;;;11.60;9.60;;;0.40;99.90;;;;;;4953016;28;20428;-68
2021/03/20 05:40:57;;;;;;;11.43;9.10;;;0.40;99.90;;;;;;4951110;29;20432;-68
2021/03/20 05:43:49;;;;;;;13.70;9.60;;;0.40;99.90;;;;;;4952098;28;20468;-69
2021/03/20 05:46:20;;;;;;;11.03;9.13;;;0.60;99.90;;;;;;4946311;28;20433;-69
2021/03/20 05:49:11;;;;;;;12.03;9.50;;;0.60;99.90;;;;;;4948697;28;20840;-69
2021/03/20 05:52:12;;;;;;;9.50;8.50;;;0.70;99.90;;;;;;4942834;29;20882;-69
2021/03/20 05:54:56;;;;;;;10.30;8.77;;;0.70;99.90;;;;;;4933098;29;20804;-68
2021/03/20 05:57:27;;;;;;;9.47;8.47;;;0.70;99.90;;;;;;4939327;29;20432;-69
2021/03/20 06:00:17;;;;;;;11.73;9.60;;;0.70;99.90;;;;;;4952735;29;20927;-68
2021/03/20 06:03:21;;;;;;;12.50;8.83;;;0.70;99.90;;;;;;4943753;29;20465;-67
2021/03/20 06:06:11;;;;;;;12.30;9.33;;;0.70;99.90;;;;;;4936400;29;20496;-68
2021/03/20 06:09:04;;;;;;;10.33;8.40;;;0.70;99.90;;;;;;4947680;29;20449;-67
2021/03/20 06:11:48;;;;;;;9.43;8.30;;;0.70;99.90;;;;;;4940898;29;20428;-68
2021/03/20 06:14:31;;;;;;;11.57;9.13;;;0.70;99.90;;;;;;4952406;29;20984;-67
2021/03/20 06:17:26;;;;;;;11.13;9.37;;;0.70;99.90;;;;;;4937902;29;20994;-68
2021/03/20 06:20:01;;;;;;;10.30;9.20;;;0.80;99.90;;;;;;4952523;29;20483;-68
2021/03/20 06:22:56;;;;;;;12.30;8.33;;;0.80;99.90;;;;;;4944805;29;20550;-69
2021/03/20 06:25:21;;;;;;;11.87;9.17;;;0.80;99.90;;;;;;4943349;28;20449;-68
2021/03/20 06:27:54;;;;;;;10.03;8.70;;;0.90;99.90;;;;;;4940700;28;20502;-67
2021/03/20 06:30:41;;;;;;;11.20;7.80;;;1.00;99.90;;;;;;4953170;28;20177;-68
2021/03/20 06:33:25;;;;;;;9.87;8.87;;;1.10;99.90;;;;;;4951803;28;20973;-67
2021/03/20 06:35:52;;;;;;;10.60;8.87;;;1.20;99.90;;;;;;4953077;28;20452;-68
2021/03/20 06:38:24;;;;;;;8.07;7.27;;;1.20;99.90;;;;;;4952828;29;20499;-68
2021/03/20 06:41:17;;;;;;;9.10;7.43;;;1.30;99.90;;;;;;4952902;29;20436;-68
2021/03/20 06:43:52;;;;;;;8.83;7.90;;;1.30;99.90;;;;;;4936549;29;20467;-68
2021/03/20 06:46:22;;;;;;;7.17;6.43;;;1.20;99.90;;;;;;4952698;28;20940;-67
2021/03/20 06:48:48;;;;;;;8.90;7.27;;;1.30;99.90;;;;;;4945905;29;20471;-68
2021/03/20 06:51:14;;;;;;;7.60;6.50;;;1.50;99.90;;;;;;4952638;29;20464;-67
2021/03/20 06:53:44;;;;;;;9.13;6.80;;;1.60;99.90;;;;;;4951693;28;21681;-67
2021/03/20 06:56:13;;;;;;;8.00;7.03;;;1.60;99.90;;;;;;4951370;29;20428;-67
2021/03/20 06:58:40;;;;;;;9.27;8.37;;;1.60;99.90;;;;;;4951543;28;20779;-68
2021/03/20 07:01:40;;;;;;;6.90;5.97;;;1.70;99.90;;;;;;4946568;29;20441;-67
2021/03/20 07:04:24;;;;;;;7.30;6.30;;;1.70;99.90;;;;;;4940443;28;20465;-67
2021/03/20 07:07:21;;;;;;;7.93;7.10;;;1.70;99.90;;;;;;4945105;29;20428;-67
2021/03/20 07:09:50;;;;;;;10.33;7.10;;;1.70;99.90;;;;;;4952345;29;20523;-67
2021/03/20 07:12:19;;;;;;;8.20;6.10;;;1.70;99.90;;;;;;4951742;29;20431;-67
2021/03/20 07:14:57;;;;;;;7.63;5.80;;;1.70;99.90;;;;;;4952376;29;20428;-67
2021/03/20 07:17:23;;;;;;;7.07;5.83;;;1.80;99.90;;;;;;4946197;29;20429;-67
2021/03/20 07:19:56;;;;;;;6.00;4.47;;;1.80;99.90;;;;;;4950761;29;20429;-67
2021/03/20 07:22:26;;;;;;;4.87;4.47;;;1.80;99.90;;;;;;4950066;29;20577;-67
2021/03/20 07:24:52;;;;;;;5.40;3.80;;;1.80;99.90;;;;;;4952168;29;20432;-67
2021/03/20 07:27:17;;;;;;;5.10;4.17;;;2.00;99.90;;;;;;4952020;29;20435;-66
2021/03/20 07:29:58;;;;;;;5.20;4.70;;;2.30;99.90;;;;;;4952118;28;20267;-67
2021/03/20 07:32:26;;;;;;;4.47;4.07;;;2.60;99.90;;;;;;4951493;29;20681;-66
2021/03/20 07:35:11;;;;;;;4.23;3.83;;;2.70;99.90;;;;;;4951717;29;20519;-66
2021/03/20 07:37:38;;;;;;;5.20;4.70;;;2.60;99.90;;;;;;4951162;28;20444;-67
2021/03/20 07:40:13;;;;;;;5.77;5.20;;;2.60;99.90;;;;;;4950856;29;20960;-67
2021/03/20 07:42:41;;;;;;;4.73;4.33;;;2.70;99.90;;;;;;4950008;28;20478;-67
2021/03/20 07:48:24;;;;;;;4.80;4.40;;;3.40;99.90;;;;;;4941564;28;20441;-68
2021/03/20 07:51:04;;;;;;;5.73;5.20;;;3.50;99.90;;;;;;4946094;29;20805;-68
2021/03/20 07:53:29;;;;;;;9.70;5.13;;;3.50;99.90;;;;;;4967120;28;20456;-67
2021/03/20 07:56:03;;;;;;;5.77;5.17;;;3.70;99.90;;;;;;4951365;29;20436;-68
2021/03/20 07:58:34;;;;;;;4.77;4.27;;;3.80;99.90;;;;;;4940608;29;20432;-68
2021/03/20 08:01:03;;;;;;;6.10;5.43;;;3.90;99.90;;;;;;4936064;29;20522;-68
2021/03/20 08:03:32;;;;;;;6.33;4.43;;;4.40;99.90;;;;;;4951023;28;21008;-67
2021/03/20 08:06:19;;;;;;;5.23;4.73;;;4.60;99.90;;;;;;4948845;29;20464;-66
2021/03/20 08:08:44;;;;;;;4.90;4.40;;;4.20;99.90;;;;;;4951987;29;20451;-65
2021/03/20 08:11:31;;;;;;;4.60;4.20;;;4.50;99.90;;;;;;4944217;28;20436;-66
2021/03/20 08:14:15;;;;;;;6.17;4.30;;;4.60;99.90;;;;;;4952994;28;20197;-66
2021/03/20 08:16:42;;;;;;;5.33;4.83;;;4.10;99.90;;;;;;4952201;28;20458;-66
2021/03/20 08:19:13;;;;;;;5.80;4.40;;;3.70;99.90;;;;;;4922551;29;20436;-66
2021/03/20 08:22:07;;;;;;;6.30;5.70;;;3.60;99.90;;;;;;4950101;28;20884;-66
2021/03/20 08:25:01;;;;;;;5.60;4.50;;;3.40;99.90;;;;;;4971514;28;20953;-67
2021/03/20 08:28:00;;;;;;;4.90;4.10;;;3.30;99.90;;;;;;4936475;29;20443;-66
2021/03/20 08:30:54;;;;;;;4.47;4.03;;;3.40;99.90;;;;;;4951739;29;21000;-66
2021/03/20 08:33:39;;;;;;;3.80;3.50;;;3.50;99.90;;;;;;4941929;28;20846;-66
2021/03/20 08:36:16;;;;;;;6.70;3.70;;;3.40;99.90;;;;;;4946823;28;20583;-68
2021/03/20 08:38:44;;;;;;;3.77;3.47;;;3.20;99.90;;;;;;4951887;29;20467;-67
2021/03/20 08:41:51;;;;;;;4.10;3.60;;;3.20;99.90;;;;;;4945329;28;20476;-67
2021/03/20 08:44:49;;;;;;;3.90;3.60;;;3.40;99.90;;;;;;4951056;28;20451;-68
2021/03/20 08:47:34;;;;;;;4.37;3.90;;;4.20;99.90;;;;;;4951135;28;20444;-67
2021/03/20 08:50:10;;;;;;;4.00;3.40;;;5.70;99.90;;;;;;4951038;29;20428;-68
2021/03/20 08:52:59;;;;;;;3.97;3.67;;;6.70;98.70;;;;;;4944528;28;20470;-67
2021/03/20 08:55:59;;;;;;;3.83;3.47;;;7.40;95.70;;;;;;4950413;29;20768;-68
2021/03/20 08:58:41;;;;;;;3.43;3.10;;;8.30;93.20;;;;;;4924214;29;20986;-67
2021/03/20 09:01:07;;;;;;;3.30;3.00;;;8.80;92.30;;;;;;4943145;29;20916;-68
2021/03/20 09:03:37;;;;;;;2.87;2.67;;;9.50;83.20;;;;;;4957465;28;20468;-68
2021/03/20 09:06:18;;;;;;;2.97;2.67;;;9.90;85.40;;;;;;4946544;28;20173;-66
2021/03/20 09:08:45;;;;;;;3.67;2.97;;;9.70;77.80;;;;;;4950979;29;20431;-67
2021/03/20 09:11:24;;;;;;;5.33;4.83;;;8.70;73.10;;;;;;4950684;29;20982;-67
2021/03/20 09:13:56;;;;;;;5.37;4.53;;;7.40;80.70;;;;;;4950168;28;20455;-65
2021/03/20 09:16:52;;;;;;;3.43;3.17;;;6.20;85.10;;;;;;4946606;29;20479;-66
2021/03/20 09:19:28;;;;;;;3.83;3.53;;;5.60;89.30;;;;;;4950917;28;20996;-66
2021/03/20 09:21:57;;;;;;;4.30;3.90;;;5.50;91.90;;;;;;4950731;28;20460;-67
2021/03/20 09:24:27;;;;;;;4.10;3.70;;;6.10;91.40;;;;;;4945764;28;20460;-68
2021/03/20 09:26:57;;;;;;;3.53;3.23;;;6.60;89.40;;;;;;4950837;29;20506;-67
2021/03/20 09:29:31;;;;;;;4.20;3.80;;;6.40;86.80;;;;;;4946214;29;20930;-67
2021/03/20 09:32:13;;;;;;;3.50;3.20;;;6.10;87.50;;;;;;4950943;28;20436;-67
2021/03/20 09:34:42;;;;;;;4.50;4.10;;;7.00;89.40;;;;;;4946000;29;20441;-67
2021/03/20 09:37:31;;;;;;;3.90;3.53;;;9.10;81.30;;;;;;4940276;29;20529;-67
2021/03/20 09:39:57;;;;;;;4.17;3.77;;;10.70;72.00;;;;;;4950256;29;20463;-68
2021/03/20 09:42:29;;;;;;;3.80;3.50;;;11.70;61.30;;;;;;4945615;29;20994;-66
2021/03/20 09:45:02;;;;;;;4.40;3.33;;;12.80;57.60;;;;;;4949094;28;20436;-65
2021/03/20 09:47:31;;;;;;;5.03;3.63;;;12.20;58.30;;;;;;4950239;29;20531;-67
2021/03/20 09:49:59;;;;;;;4.50;3.80;;;11.70;58.20;;;;;;4950586;28;20436;-66
2021/03/20 09:52:56;;;;;;;3.80;3.27;;;10.70;57.70;;;;;;4950085;28;21005;-66
2021/03/20 09:55:30;;;;;;;5.87;3.40;;;9.20;57.30;;;;;;4949394;29;20451;-66
2021/03/20 09:58:02;;;;;;;5.37;4.07;;;9.00;58.10;;;;;;4945679;28;20817;-66
2021/03/20 10:00:52;;;;;;;4.57;3.60;;;9.70;58.40;;;;;;4947697;29;20447;-67
2021/03/20 10:03:41;;;;;;;4.10;3.23;;;11.40;55.10;;;;;;4949312;28;20472;-66
2021/03/20 10:06:16;;;;;;;3.50;3.03;;;13.10;49.70;;;;;;4935364;29;20475;-66
2021/03/20 10:08:47;;;;;;;3.57;3.30;;;13.50;46.30;;;;;;4949945;28;20971;-66
2021/03/20 10:11:36;;;;;;;3.17;2.97;;;14.60;44.80;;;;;;4950200;29;20431;-66
2021/03/20 10:14:21;;;;;;;3.50;3.20;;;14.70;43.50;;;;;;4949655;28;20452;-66
2021/03/20 10:30:39;;;;;;;5.57;3.23;;;14.40;40.10;;;;;;5061414;28;20566;-64
2021/03/20 10:33:30;;;;;;;4.57;4.23;;;16.10;39.80;;;;;;5047029;28;20438;-67
2021/03/20 10:36:18;;;;;;;6.40;3.17;;;18.00;39.70;;;;;;5040474;28;20177;-67
2021/03/20 10:38:46;;;;;;;4.10;3.33;;;18.90;36.20;;;;;;5035421;28;20483;-66
2021/03/20 10:41:14;;;;;;;3.70;3.50;;;19.20;33.40;;;;;;5046757;28;20733;-65
2021/03/20 10:43:46;;;;;;;4.90;3.17;;;19.30;34.30;;;;;;5047092;28;20932;-65
2021/03/20 10:46:24;;;;;;;3.43;3.10;;;18.50;33.30;;;;;;5044962;28;20440;-65
2021/03/20 10:48:52;;;;;;;4.57;4.00;;;17.70;33.80;;;;;;5045536;28;20833;-66
2021/03/20 10:51:19;;;;;;;4.13;3.80;;;16.80;34.50;;;;;;5043434;28;20448;-66
2021/03/20 10:53:52;;;;;;;3.87;3.50;;;17.50;32.60;;;;;;5048182;28;20447;-65
2021/03/20 10:56:34;;;;;;;7.00;6.00;;;16.70;32.80;;;;;;5044200;28;20527;-66
2021/03/20 10:59:09;;;;;;;4.50;4.20;;;16.50;33.60;;;;;;5032942;28;20460;-66
2021/03/20 11:01:36;;;;;;;4.67;4.27;;;16.60;33.90;;;;;;5038657;28;20430;-66
2021/03/20 11:04:03;;;;;;;3.50;3.20;;;18.10;34.10;;;;;;5047396;28;20432;-65
2021/03/20 11:06:30;;;;;;;4.60;3.70;;;19.40;33.80;;;;;;5046487;28;20432;-68
2021/03/20 11:09:24;;;;;;;3.40;3.00;;;20.80;32.60;;;;;;5047047;28;20440;-65
2021/03/20 11:12:01;;;;;;;3.13;2.90;;;20.40;29.70;;;;;;5046140;28;20440;-65
2021/03/20 11:14:28;;;;;;;3.53;3.23;;;18.60;29.90;;;;;;5053401;28;20868;-65
2021/03/20 11:16:59;;;;;;;3.20;3.00;;;17.30;31.10;;;;;;5046276;28;20432;-65
2021/03/20 11:19:33;;;;;;;4.90;4.50;;;16.50;31.30;;;;;;5051822;28;20475;-66
2021/03/20 11:22:14;;;;;;;4.10;3.70;;;16.40;33.80;;;;;;5046471;28;20456;-66
2021/03/20 11:24:40;;;;;;;4.10;3.80;;;17.00;33.70;;;;;;5045775;28;20436;-66
2021/03/20 11:27:33;;;;;;;4.57;4.27;;;16.70;33.50;;;;;;5046387;28;20801;-66
2021/03/20 11:30:13;;;;;;;4.50;4.20;;;18.10;33.30;;;;;;5037991;28;20228;-66
2021/03/20 11:32:43;;;;;;;4.00;3.60;;;19.20;31.30;;;;;;5032844;28;20441;-66
2021/03/20 11:35:24;;;;;;;3.73;3.53;;;18.80;31.10;;;;;;5032431;28;20471;-65
2021/03/20 11:37:50;;;;;;;4.00;3.70;;;19.50;30.20;;;;;;5031481;28;20974;-65
2021/03/20 11:40:46;;;;;;;6.80;3.37;;;20.50;30.00;;;;;;5032116;28;20488;-66
2021/03/20 11:43:34;;;;;;;3.57;3.37;;;20.30;29.50;;;;;;5024940;28;20437;-66
2021/03/20 11:46:12;;;;;;;4.50;4.20;;;18.20;30.30;;;;;;5032462;28;20802;-65
2021/03/20 11:48:58;;;;;;;4.23;4.03;;;17.10;32.50;;;;;;5033545;28;20448;-66
2021/03/20 11:51:35;;;;;;;4.10;3.80;;;17.30;31.90;;;;;;5032448;28;20963;-66
2021/03/20 11:54:05;;;;;;;4.53;4.23;;;18.20;31.80;;;;;;5032020;28;20432;-66
2021/03/20 11:56:34;;;;;;;4.13;3.83;;;19.40;30.10;;;;;;5032297;28;21008;-66
2021/03/20 11:59:20;;;;;;;4.90;4.40;;;19.40;30.00;;;;;;5016170;28;20453;-66
2021/03/20 12:01:48;;;;;;;4.20;3.80;;;19.20;29.90;;;;;;5032685;28;20468;-65
2021/03/20 12:04:19;;;;;;;4.43;3.93;;;20.60;29.30;;;;;;5032506;28;20474;-66
2021/03/20 12:06:45;;;;;;;3.63;3.43;;;21.70;29.20;;;;;;5032043;28;20444;-66
2021/03/20 12:09:23;;;;;;;4.07;3.70;;;22.20;29.10;;;;;;5031538;28;20527;-65
2021/03/20 12:11:48;;;;;;;4.73;4.40;;;22.80;29.20;;;;;;5032036;28;20436;-66
2021/03/20 12:14:32;;;;;;;3.97;3.73;;;22.10;28.60;;;;;;5032357;28;20444;-65
2021/03/20 12:17:08;;;;;;;5.30;4.80;;;23.40;29.00;;;;;;5031755;28;20189;-66
2021/03/20 12:19:54;;;;;;;4.40;4.10;;;22.40;28.80;;;;;;5030946;28;20476;-66
2021/03/20 12:22:34;;;;;;;4.33;4.00;;;22.70;29.10;;;;;;5032091;28;20988;-66
2021/03/20 12:25:35;;;;;;;5.03;4.53;;;21.50;29.00;;;;;;5031685;28;20459;-65
2021/03/20 12:28:20;;;;;;;5.07;4.70;;;17.60;31.40;;;;;;5032206;28;20938;-65
2021/03/20 12:31:11;;;;;;;5.20;4.80;;;14.70;34.50;;;;;;5030853;28;20457;-66
2021/03/20 12:33:43;;;;;;;5.20;4.80;;;15.20;36.30;;;;;;5031183;28;20469;-69
2021/03/20 12:36:25;;;;;;;4.33;4.03;;;17.90;34.30;;;;;;5031547;28;20429;-68
2021/03/20 12:38:51;;;;;;;4.50;4.10;;;20.50;31.10;;;;;;5031598;28;20538;-68
2021/03/20 12:41:19;;;;;;;4.50;4.10;;;22.00;29.00;;;;;;5030187;28;20477;-68
2021/03/20 12:44:10;;;;;;;4.53;4.23;;;23.00;28.60;;;;;;5031111;28;20166;-67
2021/03/20 12:46:38;;;;;;;3.90;3.63;;;23.60;28.30;;;;;;5032023;28;20432;-67
2021/03/20 12:49:04;;;;;;;4.57;4.17;;;22.90;28.10;;;;;;5030605;28;20472;-67
2021/03/20 12:51:31;;;;;;;4.07;3.77;;;22.90;28.90;;;;;;5030792;28;20460;-68
2021/03/20 12:53:57;;;;;;;4.57;4.27;;;23.80;27.90;;;;;;5031098;28;20443;-68
2021/03/20 12:56:22;;;;;;;5.23;4.73;;;22.00;27.10;;;;;;5031948;28;20433;-67
2021/03/20 12:58:48;;;;;;;5.80;5.30;;;22.20;28.50;;;;;;5031416;28;20194;-67
2021/03/20 13:01:14;;;;;;;5.17;4.67;;;23.30;27.80;;;;;;5030891;28;20201;-67
2021/03/20 13:03:39;;;;;;;4.70;4.37;;;24.10;26.90;;;;;;5030749;28;20559;-67
2021/03/20 13:06:06;;;;;;;4.43;4.13;;;23.60;26.90;;;;;;5031402;28;20703;-66
2021/03/20 13:08:38;;;;;;;4.87;4.57;;;21.30;28.10;;;;;;5030973;28;20240;-66
2021/03/20 13:11:06;;;;;;;4.83;4.50;;;19.30;29.30;;;;;;5030488;28;20467;-66
2021/03/20 13:13:32;;;;;;;3.63;3.43;;;17.80;30.30;;;;;;5030716;28;20436;-66
2021/03/20 13:15:57;;;;;;;4.80;4.50;;;19.60;30.30;;;;;;5031136;28;20863;-67
2021/03/20 13:18:23;;;;;;;4.90;4.60;;;19.60;29.10;;;;;;5030138;28;20206;-66
2021/03/20 13:20:49;;;;;;;6.80;6.17;;;20.20;29.90;;;;;;5029942;28;20202;-69
2021/03/20 13:23:16;;;;;;;5.17;4.70;;;21.80;29.00;;;;;;5030387;28;20192;-66
2021/03/20 13:25:42;;;;;;;5.23;4.77;;;22.80;27.80;;;;;;5030470;28;20174;-69
2021/03/20 13:28:10;;;;;;;6.83;4.63;;;23.10;27.30;;;;;;5030621;28;20433;-66
2021/03/20 13:30:39;;;;;;;4.10;3.77;;;21.70;27.70;;;;;;5029988;28;20210;-68
2021/03/20 13:33:05;;;;;;;6.17;5.67;;;20.30;28.20;;;;;;5029435;28;20452;-66
2021/03/20 13:35:35;;;;;;;5.07;4.57;;;18.50;29.60;;;;;;5030880;28;20443;-66
2021/03/20 13:38:01;;;;;;;4.97;4.57;;;18.60;29.70;;;;;;5030361;28;20518;-66
2021/03/20 13:40:28;;;;;;;4.63;4.33;;;17.90;29.90;;;;;;5029796;28;20912;-66
2021/03/20 13:42:54;;;;;;;4.53;4.23;;;18.40;30.20;;;;;;5030638;28;20189;-66